METAR Data
IDs: Format: Raw Decoded Include TAF

Data at: 0117 UTC 06 Dec 2019

KBDG 060055Z AUTO 06004KT 10SM 04/03 A3027 RMK AO1 T00410027
KBDG 060035Z AUTO 06005KT 10SM 05/03 A3027 RMK AO1 T00500030
KBDG 060015Z AUTO 05003KT 10SM 06/03 A3027 RMK AO1 T00550030
KBDG 052355Z AUTO 07005KT 10SM 06/03 A3026 RMK AO1 T00560030 10092 20052
KBDG 052335Z AUTO 08005KT 10SM 06/03 A3025 RMK AO1 T00600031
KBDG 052315Z AUTO 09005KT 10SM 06/03 A3025 RMK AO1 T00560030
KBDG 052255Z AUTO 08007KT 10SM 06/03 A3023 RMK AO1 T00560031
KBDG 052235Z AUTO 07007KT 10SM 06/03 A3023 RMK AO1 T00620031
KBDG 052215Z AUTO 07005KT 10SM 07/03 A3022 RMK AO1 T00650027
KBDG 052155Z AUTO 05004KT 10SM 07/03 A3021 RMK AO1 T00720027
KBDG 052135Z AUTO 25007KT 10SM 08/00 A3020 RMK AO1 T00811001
KBDG 052115Z AUTO 23006KT 10SM 09/00 A3019 RMK AO1 T00871004
KBDG 052055Z AUTO 22007KT 10SM 09/00 A3018 RMK AO1 T00860000
KBDG 052035Z AUTO 24009KT 10SM 09/00 A3018 RMK AO1 T00870003
KBDG 052015Z AUTO 26008KT 10SM 08/00 A3018 RMK AO1 T00830003
KBDG 051955Z AUTO 24007KT 10SM 08/01 A3018 RMK AO1 T00800005
KBDG 051935Z AUTO 28007KT 10SM 07/01 A3018 RMK AO1 T00680005
KBDG 051915Z AUTO 27008KT 10SM 08/01 A3018 RMK AO1 T00770014
KBDG 051855Z AUTO 27009KT 10SM 07/02 A3018 RMK AO1 T00740018
KBDG 051835Z AUTO 29008KT 10SM 07/02 A3018 RMK AO1 T00700022
KBDG 051815Z AUTO 26006KT 10SM 07/03 A3019 RMK AO1 T00650031
KBDG 051755Z AUTO 22004KT 10SM 05/03 A3019 RMK AO1 T00500030 10055 20021
KBDG 051735Z AUTO 21007KT 10SM 05/03 A3018 RMK AO1 T00530030
KBDG 051715Z AUTO 22005KT 10SM 05/03 A3018 RMK AO1 T00480033
KBDG 051655Z AUTO 23007KT 10SM 05/03 A3017 RMK AO1 T00450034
KBDG 051635Z AUTO 22005KT 10SM 04/03 A3016 RMK AO1 T00350028
KBDG 051615Z AUTO 23004KT 10SM 03/03 A3015 RMK AO1 T00310025
KBDG 051555Z AUTO 22004KT 10SM 03/02 A3013 RMK AO1 T00250020
KBDG 051535Z AUTO 22003KT 10SM 02/02 A3013 RMK AO1 T00220019
KBDG 051515Z AUTO 20004KT 10SM 03/02 A3012 RMK AO1 T00250020
KBDG 051455Z AUTO 26006KT 7SM 03/02 A3012 RMK AO1 T00250021
KBDG 051435Z AUTO 24004KT 10SM 03/02 A3011 RMK AO1 T00250018
KBDG 051415Z AUTO 26007KT 7SM 03/02 A3010 RMK AO1 T00270020
KBDG 051355Z AUTO 00000KT 10SM 03/03 A3010 RMK AO1 T00300026
KBDG 051335Z AUTO 00000KT 10SM 03/03 A3010 RMK AO1 T00270025
KBDG 051315Z AUTO 03005KT 10SM 02/02 A3008 RMK AO1 T00230020
KBDG 051255Z AUTO 00000KT 10SM 03/02 A3007 RMK AO1 T00270021
KBDG 051235Z AUTO 20004KT 10SM 03/02 A3006 RMK AO1 T00320024
KBDG 051215Z AUTO 24003KT 10SM 03/02 A3006 RMK AO1 T00340023
KBDG 051155Z AUTO 23008KT 10SM 04/03 A3007 RMK AO1 T00360027 10050 20031
KBDG 051135Z AUTO 24006KT 10SM 03/03 A3008 RMK AO1 T00340029
KBDG 051115Z AUTO 23003KT 10SM 03/03 A3006 RMK AO1 T00310028
KBDG 051055Z AUTO 24007KT 10SM 04/04 A3006 RMK AO1 T00360036
KBDG 051035Z AUTO 24008G14KT 10SM 04/04 A3006 RMK AO1 T00420042
KBDG 051015Z AUTO 24007KT 5SM 05/05 A3007 RMK AO1 T00450045
KBDG 050955Z AUTO 23005KT 3SM 05/05 A3006 RMK AO1 T00450045
KBDG 050935Z AUTO 19006KT 2SM 05/05 A3006 RMK AO1 T00460046
KBDG 050915Z AUTO 19005KT 2 1/2SM 05/05 A3005 RMK AO1 T00460046
KBDG 050855Z AUTO 20007KT 2SM 05/05 A3004 RMK AO1 T00480048
KBDG 050835Z AUTO 20008KT 3/4SM 05/05 A3004 RMK AO1 T00500049
KBDG 050815Z AUTO 20006KT 1/4SM 05/05 A3004 RMK AO1 T00500050
KBDG 050755Z AUTO 21007KT 1 1/4SM 05/05 A3003 RMK AO1 T00500050
KBDG 050735Z AUTO 21004KT 1/2SM 05/05 A3003 RMK AO1 T00500049
KBDG 050715Z AUTO 18006KT 1/2SM 05/05 A3003 RMK AO1 T00500048
KBDG 050655Z AUTO 15009KT 1/4SM 05/05 A3004 RMK AO1 T00490047 400701005
KBDG 050635Z AUTO 15009KT 1/2SM 05/05 A3004 RMK AO1 T00480047
KBDG 050615Z AUTO 16007KT 1 3/4SM 05/05 A3005 RMK AO1 T00480047
KBDG 050555Z AUTO 15010G14KT 4SM 05/05 A3006 RMK AO1 T00500047 10060 20045
KBDG 050535Z AUTO 16007KT 4SM 05/05 A3006 RMK AO1 T00480047
KBDG 050515Z AUTO 17007KT 4SM 05/05 A3006 RMK AO1 T00480047
KBDG 050455Z AUTO 16006KT 5SM 05/05 A3006 RMK AO1 T00470046
KBDG 050435Z AUTO 14006KT 4SM 05/05 A3006 RMK AO1 T00470046
KBDG 050415Z AUTO 13007KT 4SM 05/05 A3006 RMK AO1 T00480046
KBDG 050355Z AUTO 13008KT 3SM 05/05 A3007 RMK AO1 T00480046
KBDG 050335Z AUTO 13008KT 4SM 05/05 A3007 RMK AO1 T00480045
KBDG 050315Z AUTO 00000KT 4SM 05/04 A3008 RMK AO1 T00450040
KBDG 050255Z AUTO 12005KT 5SM 05/03 A3008 RMK AO1 T00460033
KBDG 050235Z AUTO 11004KT 10SM 05/02 A3009 RMK AO1 T00510023
KBDG 050215Z AUTO 05004KT 10SM 05/03 A3009 RMK AO1 T00500025
KBDG 050155Z AUTO 05004KT 10SM 05/02 A3009 RMK AO1 T00520021
KBDG 050135Z AUTO 03004KT 10SM 05/02 A3010 RMK AO1 T00520020
KBDG 050115Z AUTO 03003KT 10SM 05/02 A3010 RMK AO1 T00520017
KBDG 050055Z AUTO 04003KT 10SM 05/02 A3010 RMK AO1 T00500016
KBDG 050035Z AUTO 03004KT 10SM 05/02 A3010 RMK AO1 T00510016
KBDG 050015Z AUTO 00000KT 10SM 06/02 A3010 RMK AO1 T00550016
KBDG 042355Z AUTO 05004KT 10SM 06/02 A3010 RMK AO1 T00600015 10070 20046
KBDG 042335Z AUTO 00000KT 10SM 06/02 A3011 RMK AO1 T00630015
KBDG 042315Z AUTO 00000KT 10SM 07/01 A3012 RMK AO1 T00650010
KBDG 042255Z AUTO 00000KT 10SM 07/01 A3012 RMK AO1 T00680011
KBDG 042235Z AUTO 08003KT 10SM 07/01 A3013 RMK AO1 T00670012
KBDG 042215Z AUTO 00000KT 10SM 07/01 A3013 RMK AO1 T00670013
KBDG 042155Z AUTO 00000KT 10SM 07/01 A3014 RMK AO1 T00690011
KBDG 042135Z AUTO 00000KT 10SM 07/01 A3014 RMK AO1 T00670009
KBDG 042115Z AUTO 00000KT 10SM 07/01 A3015 RMK AO1 T00660009
KBDG 042055Z AUTO 00000KT 10SM 07/01 A3015 RMK AO1 T00650008
KBDG 042035Z AUTO 00000KT 10SM 06/00 A3016 RMK AO1 T00630004
KBDG 042015Z AUTO 00000KT 10SM 06/01 A3017 RMK AO1 T00640007
KBDG 041955Z AUTO 00000KT 10SM 06/00 A3018 RMK AO1 T00620002
KBDG 041935Z AUTO 00000KT 10SM 06/M01 A3019 RMK AO1 T00551006
KBDG 041915Z AUTO 00000KT 10SM 05/M01 A3021 RMK AO1 T00521007
KBDG 041855Z AUTO 10004KT 10SM 05/M01 A3021 RMK AO1 T00501008
KBDG 041835Z AUTO 09004KT 10SM 05/M01 A3022 RMK AO1 T00471011
KBDG 041815Z AUTO 13005KT 10SM 05/M01 A3024 RMK AO1 T00481011
KBDG 041755Z AUTO 14003KT 10SM 05/M01 A3025 RMK AO1 T00471013 10054 21005
KBDG 041735Z AUTO 12003KT 10SM 05/M01 A3026 RMK AO1 T00461014
KBDG 041715Z AUTO 12003KT 10SM 05/M01 A3026 RMK AO1 T00491015
KBDG 041655Z AUTO 00000KT 10SM 04/M02 A3025 RMK AO1 T00421016
KBDG 041635Z AUTO 12003KT 10SM 04/M02 A3025 RMK AO1 T00411017
KBDG 041615Z AUTO 00000KT 10SM 02/M01 A3026 RMK AO1 T00231012
KBDG 041555Z AUTO 35006KT 10SM 01/M01 A3025 RMK AO1 T00081009
KBDG 041535Z AUTO 36004KT 10SM 01/00 A3025 RMK AO1 T00131005
KBDG 041515Z AUTO 36005KT 10SM 00/M01 A3025 RMK AO1 T00021011
KBDG 041455Z AUTO 01004KT 10SM 00/M02 A3025 RMK AO1 T10031019
KBDG 041435Z AUTO 00000KT 10SM 00/M02 A3025 RMK AO1 T10021020
KBDG 041415Z AUTO 00000KT 10SM 01/M02 A3025 RMK AO1 T00051020
KBDG 041355Z AUTO 00000KT 10SM 00/M02 A3025 RMK AO1 T00001016
KBDG 041335Z AUTO 00000KT 10SM 00/M02 A3025 RMK AO1 T00001017